Time;durP1;ratioP1;P1;durP2;ratioP2;P2;SDS_P1;SDS_P2;PMS_P1;PMS_P2;Temp;Humidity;BMP_temperature;BMP_pressure;BME280_temperature;BME280_humidity;BME280_pressure;Samples;Min_cycle;Max_cycle;Signal;HPM_P1;HPM_P2
2021/07/11 00:01:18;;;;;;;1.77;0.95;;;18.40;75.60;;;;;;5082234;27;20036;-62
2021/07/11 00:03:44;;;;;;;1.15;1.02;;;18.40;75.80;;;;;;5085663;28;20032;-63
2021/07/11 00:06:10;;;;;;;0.90;0.75;;;18.30;75.90;;;;;;5083333;27;20028;-63
2021/07/11 00:08:35;;;;;;;1.92;1.02;;;18.30;76.90;;;;;;5078988;27;20037;-61
2021/07/11 00:11:01;;;;;;;1.35;0.90;;;18.30;76.10;;;;;;5086013;28;20039;-63
2021/07/11 00:13:27;;;;;;;0.90;0.90;;;18.20;76.10;;;;;;5083457;27;20024;-63
2021/07/11 00:15:53;;;;;;;1.00;0.88;;;18.20;76.30;;;;;;5078968;27;20055;-63
2021/07/11 00:18:19;;;;;;;1.88;1.20;;;18.20;76.40;;;;;;5086095;27;20162;-62
2021/07/11 00:20:44;;;;;;;1.27;0.70;;;18.20;76.50;;;;;;5083683;27;20128;-63
2021/07/11 00:23:10;;;;;;;1.45;0.70;;;18.20;76.60;;;;;;5081436;28;20525;-63
2021/07/11 00:25:36;;;;;;;3.20;1.13;;;18.20;76.70;;;;;;5083048;27;20040;-63
2021/07/11 00:28:01;;;;;;;1.08;0.90;;;18.20;76.60;;;;;;5077837;28;20040;-64
2021/07/11 00:30:27;;;;;;;1.15;1.00;;;18.20;76.80;;;;;;5081429;27;20040;-63
2021/07/11 00:32:54;;;;;;;1.00;0.90;;;18.20;76.80;;;;;;5084709;27;20036;-63
2021/07/11 00:35:20;;;;;;;1.33;1.10;;;18.10;76.70;;;;;;5083555;27;20108;-63
2021/07/11 00:37:46;;;;;;;1.13;1.02;;;18.20;76.70;;;;;;5081948;28;20036;-63
2021/07/11 00:40:12;;;;;;;1.27;1.00;;;18.10;76.70;;;;;;5079942;28;20056;-63
2021/07/11 00:42:40;;;;;;;0.95;0.90;;;18.10;77.00;;;;;;5084486;27;20051;-63
2021/07/11 00:45:07;;;;;;;1.13;0.93;;;18.10;76.90;;;;;;5085272;27;20078;-63
2021/07/11 00:47:37;;;;;;;0.90;0.80;;;18.10;76.70;;;;;;5082026;28;20157;-63
2021/07/11 00:50:03;;;;;;;2.25;1.08;;;18.00;77.10;;;;;;5081609;27;20036;-63
2021/07/11 00:52:29;;;;;;;0.73;0.73;;;18.00;76.90;;;;;;5078604;27;20055;-62
2021/07/11 00:54:55;;;;;;;0.80;0.70;;;18.00;76.90;;;;;;5079854;28;20558;-63
2021/07/11 00:57:20;;;;;;;1.45;0.93;;;18.00;77.00;;;;;;5080671;28;20123;-63
2021/07/11 00:59:46;;;;;;;1.38;1.20;;;18.00;77.10;;;;;;5083225;28;20029;-63
2021/07/11 01:02:17;;;;;;;0.95;0.93;;;17.90;77.10;;;;;;5083595;28;20040;-63
2021/07/11 01:04:55;;;;;;;1.10;1.00;;;17.90;77.30;;;;;;5082982;28;20032;-63
2021/07/11 01:07:31;;;;;;;1.20;1.00;;;17.90;77.80;;;;;;5084225;28;20107;-63
2021/07/11 01:10:02;;;;;;;1.83;1.00;;;17.80;78.20;;;;;;5079920;27;20032;-63
2021/07/11 01:12:32;;;;;;;1.00;0.90;;;17.80;77.50;;;;;;5079692;27;20186;-63
2021/07/11 01:15:00;;;;;;;0.88;0.88;;;17.80;78.70;;;;;;5084978;28;20036;-64
2021/07/11 01:17:27;;;;;;;1.20;1.10;;;17.70;77.90;;;;;;5081459;27;20039;-63
2021/07/11 01:20:18;;;;;;;1.10;0.90;;;17.70;77.90;;;;;;5097550;27;20051;-64
2021/07/11 01:22:49;;;;;;;3.22;1.00;;;17.70;79.20;;;;;;5078849;27;20046;-64
2021/07/11 01:25:32;;;;;;;1.00;1.00;;;17.60;78.40;;;;;;5082663;27;20123;-64
2021/07/11 01:27:59;;;;;;;1.08;0.93;;;17.60;79.30;;;;;;5077676;27;20565;-63
2021/07/11 01:30:25;;;;;;;1.05;1.00;;;17.60;78.20;;;;;;5081878;27;20082;-63
2021/07/11 01:32:51;;;;;;;1.08;0.93;;;17.60;78.30;;;;;;5080596;27;20032;-64
2021/07/11 01:35:17;;;;;;;1.05;1.05;;;17.50;78.40;;;;;;5081265;28;20043;-63
2021/07/11 01:37:43;;;;;;;1.45;1.00;;;17.50;78.60;;;;;;5081698;28;20040;-64
2021/07/11 01:40:10;;;;;;;3.45;1.00;;;17.50;78.60;;;;;;5082220;28;20028;-64
2021/07/11 01:42:37;;;;;;;1.02;0.98;;;17.50;78.70;;;;;;5081015;27;20032;-63
2021/07/11 01:45:05;;;;;;;1.05;0.95;;;17.50;78.90;;;;;;5079511;28;20032;-64
2021/07/11 01:47:32;;;;;;;1.08;1.00;;;17.50;78.90;;;;;;5082947;28;20077;-64
2021/07/11 01:49:58;;;;;;;0.82;0.82;;;17.50;78.70;;;;;;5079935;27;20067;-62
2021/07/11 01:52:23;;;;;;;1.75;0.95;;;17.50;78.90;;;;;;5082601;27;20059;-64
2021/07/11 01:54:50;;;;;;;1.38;1.17;;;17.50;78.90;;;;;;5081655;28;20047;-64
2021/07/11 01:57:16;;;;;;;1.70;1.10;;;17.50;79.10;;;;;;5081253;27;20520;-63
2021/07/11 01:59:42;;;;;;;1.05;0.95;;;17.50;79.20;;;;;;5082946;28;20059;-64
2021/07/11 02:02:07;;;;;;;0.95;0.95;;;17.50;79.10;;;;;;5078336;28;20127;-64
2021/07/11 02:04:33;;;;;;;1.45;0.90;;;17.50;78.90;;;;;;5082838;27;20028;-64
2021/07/11 02:06:59;;;;;;;1.25;0.90;;;17.50;78.90;;;;;;5082897;28;20113;-63
2021/07/11 02:09:24;;;;;;;1.65;1.05;;;17.50;78.90;;;;;;5085831;27;20028;-63
2021/07/11 02:11:50;;;;;;;1.20;1.10;;;17.50;78.90;;;;;;5077776;28;20028;-63
2021/07/11 02:14:20;;;;;;;1.15;1.00;;;17.40;79.00;;;;;;5081554;27;20395;-65
2021/07/11 02:16:58;;;;;;;1.00;0.90;;;17.40;79.30;;;;;;5080782;27;20043;-63
2021/07/11 02:19:24;;;;;;;0.93;0.90;;;17.50;79.40;;;;;;5081476;28;20032;-64
2021/07/11 02:21:50;;;;;;;1.20;0.77;;;17.50;78.90;;;;;;5080813;27;20543;-64
2021/07/11 02:24:17;;;;;;;1.38;1.10;;;17.50;78.80;;;;;;5077965;28;20081;-65
2021/07/11 02:26:44;;;;;;;1.55;0.73;;;17.50;79.80;;;;;;5082345;27;20410;-64
2021/07/11 02:29:10;;;;;;;1.80;0.82;;;17.50;78.70;;;;;;5090156;27;20028;-64
2021/07/11 02:31:40;;;;;;;0.85;0.82;;;17.50;78.70;;;;;;5084260;28;20589;-64
2021/07/11 02:34:07;;;;;;;1.00;0.90;;;17.50;78.80;;;;;;5086081;27;20047;-64
2021/07/11 02:36:33;;;;;;;1.08;1.00;;;17.50;78.70;;;;;;5096697;27;20460;-64
2021/07/11 02:39:06;;;;;;;0.70;0.70;;;17.50;78.90;;;;;;5081288;28;20535;-64
2021/07/11 02:41:35;;;;;;;1.95;0.88;;;17.50;79.00;;;;;;5081803;27;20032;-64
2021/07/11 02:44:04;;;;;;;1.10;0.95;;;17.50;78.60;;;;;;5077338;28;20457;-64
2021/07/11 02:46:37;;;;;;;1.50;0.88;;;17.50;78.50;;;;;;5077744;28;20108;-64
2021/07/11 02:49:04;;;;;;;1.02;0.88;;;17.50;78.60;;;;;;5081779;27;20035;-64
2021/07/11 02:51:37;;;;;;;2.10;0.75;;;17.50;78.30;;;;;;5081573;28;20029;-64
2021/07/11 02:54:06;;;;;;;0.90;0.90;;;17.50;78.60;;;;;;5082591;27;20032;-64
2021/07/11 02:56:38;;;;;;;1.17;0.85;;;17.50;78.40;;;;;;5081461;27;20185;-64
2021/07/11 02:59:05;;;;;;;1.10;0.80;;;17.40;78.50;;;;;;5082325;28;20077;-64
2021/07/11 03:01:33;;;;;;;0.95;0.95;;;17.50;78.60;;;;;;5082064;27;21031;-64
2021/07/11 03:04:01;;;;;;;0.80;0.80;;;17.40;78.60;;;;;;5081127;28;20032;-64
2021/07/11 03:06:26;;;;;;;1.38;1.02;;;17.40;78.50;;;;;;5086043;27;20036;-64
2021/07/11 03:08:52;;;;;;;1.95;0.73;;;17.40;78.60;;;;;;5084511;27;20581;-63
2021/07/11 03:11:18;;;;;;;1.25;0.80;;;17.40;78.70;;;;;;5085473;28;20092;-64
2021/07/11 03:13:46;;;;;;;0.90;0.73;;;17.40;79.00;;;;;;5083201;28;20088;-64
2021/07/11 03:16:12;;;;;;;1.05;0.80;;;17.40;79.10;;;;;;5085427;28;20042;-64
2021/07/11 03:18:38;;;;;;;0.80;0.80;;;17.40;78.90;;;;;;5084038;27;20048;-64
2021/07/11 03:21:06;;;;;;;1.85;0.90;;;17.40;78.90;;;;;;5082946;27;20044;-64
2021/07/11 03:23:34;;;;;;;3.05;0.68;;;17.40;78.90;;;;;;5085935;27;20036;-64
2021/07/11 03:26:00;;;;;;;2.17;0.90;;;17.40;79.10;;;;;;5101833;27;20024;-64
2021/07/11 03:28:30;;;;;;;1.35;0.80;;;17.40;78.90;;;;;;5085126;27;20032;-64
2021/07/11 03:30:56;;;;;;;2.78;0.93;;;17.40;79.10;;;;;;5086983;28;20024;-64
2021/07/11 03:33:24;;;;;;;0.70;0.70;;;17.40;78.90;;;;;;5086239;27;20043;-65
2021/07/11 03:35:58;;;;;;;1.23;0.70;;;17.40;79.00;;;;;;5086289;28;20085;-64
2021/07/11 03:38:46;;;;;;;2.15;0.90;;;17.40;79.50;;;;;;5085434;27;20108;-63
2021/07/11 03:41:14;;;;;;;2.15;0.70;;;17.40;79.80;;;;;;5086681;27;20081;-64
2021/07/11 03:43:42;;;;;;;3.03;0.73;;;17.40;79.10;;;;;;5086233;27;20032;-64
2021/07/11 03:46:09;;;;;;;1.95;0.90;;;17.40;79.10;;;;;;5084463;28;20078;-62
2021/07/11 03:48:50;;;;;;;0.77;0.77;;;17.40;79.10;;;;;;5083991;28;20043;-64
2021/07/11 03:51:16;;;;;;;0.85;0.80;;;17.40;79.60;;;;;;5081888;27;20032;-64
2021/07/11 03:53:44;;;;;;;1.02;0.77;;;17.40;79.10;;;;;;5082947;28;20043;-64
2021/07/11 03:56:10;;;;;;;0.77;0.60;;;17.40;79.10;;;;;;5088657;28;20032;-63
2021/07/11 03:58:41;;;;;;;1.15;0.77;;;17.40;79.20;;;;;;5084660;27;20118;-64
2021/07/11 04:01:07;;;;;;;1.17;0.85;;;17.30;79.40;;;;;;5082700;28;20032;-64
2021/07/11 04:03:37;;;;;;;2.00;0.90;;;17.40;79.40;;;;;;5087839;28;20544;-64
2021/07/11 04:06:08;;;;;;;1.05;1.00;;;17.30;79.40;;;;;;5081266;27;20551;-64
2021/07/11 04:08:35;;;;;;;0.98;0.80;;;17.30;79.40;;;;;;5085853;27;20025;-65
2021/07/11 04:11:01;;;;;;;1.00;0.80;;;17.30;79.50;;;;;;5086963;28;20032;-65
2021/07/11 04:13:26;;;;;;;0.80;0.70;;;17.30;79.60;;;;;;5086385;27;20048;-64
2021/07/11 04:15:56;;;;;;;0.90;0.90;;;17.30;79.70;;;;;;5079318;27;20036;-64
2021/07/11 04:18:24;;;;;;;1.25;0.90;;;17.30;80.00;;;;;;5082968;27;20529;-64
2021/07/11 04:20:53;;;;;;;2.05;0.70;;;17.30;80.00;;;;;;5082871;28;20163;-62
2021/07/11 04:23:27;;;;;;;0.70;0.70;;;17.30;79.90;;;;;;5081907;28;20123;-65
2021/07/11 04:25:55;;;;;;;1.00;0.70;;;17.30;80.00;;;;;;5087416;27;20538;-63
2021/07/11 04:28:23;;;;;;;0.82;0.63;;;17.30;80.00;;;;;;5087342;28;20044;-64
2021/07/11 04:30:49;;;;;;;0.73;0.70;;;17.30;80.10;;;;;;5081606;28;20032;-65
2021/07/11 04:33:14;;;;;;;2.35;0.80;;;17.30;80.00;;;;;;5083492;27;20035;-64
2021/07/11 04:35:41;;;;;;;0.80;0.63;;;17.30;80.00;;;;;;5084343;28;20064;-64
2021/07/11 04:38:06;;;;;;;2.40;0.98;;;17.30;80.00;;;;;;5084342;27;20084;-64
2021/07/11 04:40:32;;;;;;;0.93;0.65;;;17.30;79.90;;;;;;5085345;27;20044;-64
2021/07/11 04:42:58;;;;;;;1.70;0.70;;;17.40;79.90;;;;;;5085137;28;20043;-65
2021/07/11 04:45:23;;;;;;;1.10;0.70;;;17.40;79.90;;;;;;5097516;27;20032;-64
2021/07/11 04:47:49;;;;;;;2.70;0.93;;;17.40;79.80;;;;;;5081962;28;20070;-66
2021/07/11 04:50:15;;;;;;;2.72;0.80;;;17.40;79.90;;;;;;5084465;28;20067;-64
2021/07/11 04:52:41;;;;;;;0.65;0.60;;;17.40;79.80;;;;;;5080781;27;20775;-65
2021/07/11 04:55:12;;;;;;;2.35;1.02;;;17.40;79.80;;;;;;5087089;28;20047;-64
2021/07/11 04:57:39;;;;;;;0.95;0.70;;;17.40;79.80;;;;;;5085364;27;20032;-63
2021/07/11 05:00:07;;;;;;;0.88;0.60;;;17.50;79.90;;;;;;5085235;28;20036;-64
2021/07/11 05:02:33;;;;;;;0.73;0.55;;;17.50;79.60;;;;;;5082394;27;20094;-63
2021/07/11 05:05:03;;;;;;;1.80;0.80;;;17.50;79.40;;;;;;5082540;27;20093;-64
2021/07/11 05:07:29;;;;;;;0.60;0.60;;;17.50;79.40;;;;;;5082995;28;20122;-64
2021/07/11 05:09:54;;;;;;;1.45;0.70;;;17.50;79.30;;;;;;5083617;27;20578;-64
2021/07/11 05:12:20;;;;;;;6.38;4.40;;;17.50;79.30;;;;;;5082060;28;20039;-63
2021/07/11 05:14:45;;;;;;;6.35;5.40;;;17.50;79.30;;;;;;5082502;28;20067;-64
2021/07/11 05:17:11;;;;;;;2.33;1.60;;;17.40;79.30;;;;;;5081807;27;20118;-64
2021/07/11 05:19:37;;;;;;;5.78;4.38;;;17.40;79.30;;;;;;5084068;28;20680;-63
2021/07/11 05:22:04;;;;;;;6.18;4.15;;;17.40;79.40;;;;;;5081083;27;20144;-64
2021/07/11 05:24:29;;;;;;;1.65;1.30;;;17.40;79.60;;;;;;5085300;27;20035;-64
2021/07/11 05:26:55;;;;;;;2.38;2.17;;;17.40;79.60;;;;;;5083072;28;20040;-64
2021/07/11 05:29:21;;;;;;;2.53;1.80;;;17.40;79.60;;;;;;5084200;28;20040;-64
2021/07/11 05:31:47;;;;;;;1.85;1.40;;;17.40;79.80;;;;;;5078728;27;20511;-63
2021/07/11 05:34:12;;;;;;;5.13;4.65;;;17.40;79.80;;;;;;5077170;27;20075;-64
2021/07/11 05:36:38;;;;;;;4.00;2.65;;;17.40;79.90;;;;;;5076991;27;20071;-64
2021/07/11 05:39:04;;;;;;;1.67;1.58;;;17.40;80.00;;;;;;5077676;28;20028;-64
2021/07/11 05:41:30;;;;;;;1.50;1.40;;;17.50;80.00;;;;;;5078442;27;20047;-64
2021/07/11 05:43:57;;;;;;;2.00;1.90;;;17.50;80.30;;;;;;5080342;28;20043;-63
2021/07/11 05:46:22;;;;;;;3.20;2.20;;;17.50;80.10;;;;;;5080360;27;20119;-63
2021/07/11 05:48:48;;;;;;;3.45;3.15;;;17.50;80.20;;;;;;5078634;28;20119;-64
2021/07/11 05:51:14;;;;;;;3.15;2.95;;;17.60;80.30;;;;;;5090476;28;20070;-64
2021/07/11 05:53:40;;;;;;;4.90;4.50;;;17.60;80.30;;;;;;5079051;27;20036;-64
2021/07/11 05:56:05;;;;;;;33.53;23.08;;;17.60;80.30;;;;;;5082218;28;20048;-64
2021/07/11 05:58:31;;;;;;;8.52;6.68;;;17.60;80.40;;;;;;5081596;27;20039;-64
2021/07/11 06:00:57;;;;;;;5.60;4.97;;;17.70;80.40;;;;;;5084313;27;20804;-64
2021/07/11 06:03:22;;;;;;;4.07;2.40;;;17.70;80.40;;;;;;5075056;28;20741;-64
2021/07/11 06:05:48;;;;;;;1.42;1.20;;;17.80;80.60;;;;;;5079157;28;20449;-64
2021/07/11 06:08:13;;;;;;;3.85;3.47;;;17.80;80.30;;;;;;5083847;28;20085;-64
2021/07/11 06:10:39;;;;;;;1.13;1.02;;;17.80;80.00;;;;;;5081794;27;20028;-64
2021/07/11 06:13:05;;;;;;;0.93;0.88;;;17.80;80.10;;;;;;5082091;27;20903;-63
2021/07/11 06:15:31;;;;;;;2.15;1.73;;;17.80;80.30;;;;;;5083123;28;20036;-65
2021/07/11 06:17:56;;;;;;;1.50;1.20;;;17.90;80.20;;;;;;5080595;27;20047;-64
2021/07/11 06:20:23;;;;;;;1.70;1.05;;;17.90;80.10;;;;;;5081351;27;20123;-64
2021/07/11 06:22:49;;;;;;;1.08;0.98;;;18.00;80.10;;;;;;5081979;27;20404;-65
2021/07/11 06:25:15;;;;;;;1.40;1.30;;;18.00;79.90;;;;;;5079885;27;20032;-64
2021/07/11 06:27:42;;;;;;;1.67;1.17;;;18.00;80.00;;;;;;5086176;28;20036;-65
2021/07/11 06:30:15;;;;;;;1.20;1.05;;;18.10;81.00;;;;;;5082678;28;20779;-65
2021/07/11 06:32:42;;;;;;;2.15;0.90;;;18.10;80.30;;;;;;5082088;27;20035;-63
2021/07/11 06:35:11;;;;;;;3.00;1.20;;;18.20;79.90;;;;;;5093487;27;20094;-64
2021/07/11 06:37:37;;;;;;;1.55;1.25;;;18.20;79.40;;;;;;5076408;27;20151;-63
2021/07/11 06:40:05;;;;;;;3.78;1.38;;;18.20;79.30;;;;;;5080185;28;20520;-64
2021/07/11 06:42:31;;;;;;;1.30;1.20;;;18.30;79.50;;;;;;5062810;27;21753;-64
2021/07/11 06:44:56;;;;;;;1.25;1.02;;;18.30;79.40;;;;;;5063891;28;20062;-64
2021/07/11 06:47:22;;;;;;;1.20;1.02;;;18.30;79.30;;;;;;5071385;28;20032;-65
2021/07/11 06:49:48;;;;;;;2.45;0.90;;;18.40;79.30;;;;;;5070038;27;20055;-63
2021/07/11 06:52:13;;;;;;;1.25;1.13;;;18.30;79.10;;;;;;5068779;28;20186;-65
2021/07/11 06:54:39;;;;;;;1.30;1.20;;;18.40;79.30;;;;;;5069135;28;21983;-64
2021/07/11 06:57:05;;;;;;;2.67;2.47;;;18.40;79.20;;;;;;5066231;28;20032;-65
2021/07/11 06:59:31;;;;;;;2.70;2.03;;;18.40;79.10;;;;;;5069113;27;20564;-65
2021/07/11 07:01:56;;;;;;;5.82;4.75;;;18.50;78.90;;;;;;5077432;28;21890;-65
2021/07/11 07:04:22;;;;;;;8.93;6.70;;;18.50;78.70;;;;;;5070290;27;20045;-65
2021/07/11 07:06:49;;;;;;;4.75;4.25;;;18.50;78.50;;;;;;5067976;28;20036;-63
2021/07/11 07:09:15;;;;;;;8.02;5.72;;;18.50;78.40;;;;;;5070153;27;20511;-65
2021/07/11 07:11:41;;;;;;;7.47;5.88;;;18.50;78.70;;;;;;5066101;27;20039;-65
2021/07/11 07:14:06;;;;;;;3.97;2.97;;;18.60;78.90;;;;;;5086702;28;20089;-65
2021/07/11 07:16:32;;;;;;;1.73;1.45;;;18.60;78.90;;;;;;5071073;27;20419;-63
2021/07/11 07:18:58;;;;;;;3.65;1.67;;;18.70;78.80;;;;;;5073501;27;20087;-64
2021/07/11 07:21:23;;;;;;;1.60;1.50;;;18.70;78.40;;;;;;5066026;28;20578;-64
2021/07/11 07:23:49;;;;;;;1.55;1.45;;;18.70;78.40;;;;;;5071068;28;20040;-65
2021/07/11 07:26:16;;;;;;;1.92;1.83;;;18.80;78.70;;;;;;5068297;27;20480;-65
2021/07/11 07:28:41;;;;;;;2.47;2.28;;;18.90;79.70;;;;;;5069391;27;20447;-65
2021/07/11 07:31:07;;;;;;;1.52;1.42;;;18.90;78.00;;;;;;5080220;28;22120;-65
2021/07/11 07:33:33;;;;;;;2.40;2.17;;;19.00;77.60;;;;;;5073523;27;20024;-65
2021/07/11 07:35:58;;;;;;;1.88;1.40;;;19.10;77.50;;;;;;5071198;28;22373;-65
2021/07/11 07:38:24;;;;;;;1.90;1.80;;;19.10;77.30;;;;;;5068548;28;20065;-65
2021/07/11 07:40:49;;;;;;;1.10;1.10;;;19.20;77.30;;;;;;5070009;27;20032;-65
2021/07/11 07:43:15;;;;;;;1.23;1.13;;;19.30;77.20;;;;;;5068246;28;20036;-65
2021/07/11 07:45:44;;;;;;;1.20;1.10;;;19.40;77.50;;;;;;5076405;28;20033;-65
2021/07/11 07:48:11;;;;;;;1.23;1.13;;;19.40;76.10;;;;;;5067313;28;20147;-65
2021/07/11 07:50:37;;;;;;;1.38;1.27;;;19.50;75.60;;;;;;5070796;27;20032;-64
2021/07/11 07:53:03;;;;;;;1.45;1.33;;;19.60;75.60;;;;;;5067973;28;20847;-65
2021/07/11 07:55:31;;;;;;;1.20;1.10;;;19.70;74.90;;;;;;5069982;27;20055;-65
2021/07/11 07:58:01;;;;;;;2.17;1.20;;;19.70;74.40;;;;;;5067774;28;20101;-66
2021/07/11 08:00:27;;;;;;;1.45;1.20;;;19.80;74.40;;;;;;5067550;27;20043;-65
2021/07/11 08:02:53;;;;;;;1.70;1.20;;;19.90;74.30;;;;;;5073633;27;20036;-65
2021/07/11 08:05:19;;;;;;;1.92;1.30;;;19.90;74.40;;;;;;5069959;27;20041;-65
2021/07/11 08:07:45;;;;;;;3.38;1.20;;;20.00;74.20;;;;;;5067977;28;20036;-65
2021/07/11 08:10:12;;;;;;;2.97;1.15;;;20.10;73.90;;;;;;5072676;27;20495;-65
2021/07/11 08:12:38;;;;;;;1.17;1.10;;;20.20;73.30;;;;;;5064316;27;20128;-65
2021/07/11 08:15:06;;;;;;;2.30;1.20;;;20.30;72.60;;;;;;5080886;28;20410;-65
2021/07/11 08:17:32;;;;;;;1.17;1.08;;;20.30;72.60;;;;;;5081087;28;20269;-65
2021/07/11 08:20:00;;;;;;;1.65;1.20;;;20.40;72.70;;;;;;5085200;28;20115;-65
2021/07/11 08:22:25;;;;;;;1.48;1.17;;;20.50;73.80;;;;;;5080388;27;20085;-65
2021/07/11 08:24:51;;;;;;;4.15;1.10;;;20.60;71.70;;;;;;5083850;28;20036;-65
2021/07/11 08:27:16;;;;;;;1.38;1.13;;;20.60;71.20;;;;;;5083514;28;20449;-65
2021/07/11 08:29:42;;;;;;;1.30;1.20;;;20.70;71.10;;;;;;5084659;28;20059;-66
2021/07/11 08:32:08;;;;;;;1.27;1.05;;;20.70;70.40;;;;;;5082487;28;20035;-65
2021/07/11 08:34:33;;;;;;;1.23;1.13;;;20.80;69.70;;;;;;5084693;27;20039;-66
2021/07/11 08:36:59;;;;;;;1.00;1.00;;;20.80;69.90;;;;;;5080473;28;20077;-66
2021/07/11 08:39:29;;;;;;;1.23;1.15;;;20.90;69.50;;;;;;5085432;28;20038;-65
2021/07/11 08:41:56;;;;;;;1.17;1.08;;;20.90;69.30;;;;;;5097743;27;20581;-65
2021/07/11 08:44:24;;;;;;;1.13;1.02;;;20.90;68.60;;;;;;5084004;27;20040;-67
2021/07/11 08:46:50;;;;;;;0.93;0.93;;;20.90;68.60;;;;;;5085712;28;20437;-65
2021/07/11 08:49:16;;;;;;;0.95;0.90;;;20.90;69.20;;;;;;5082235;27;20032;-65
2021/07/11 08:51:41;;;;;;;1.08;1.00;;;21.00;69.50;;;;;;5079363;28;20055;-66
2021/07/11 08:54:07;;;;;;;0.85;0.85;;;21.00;69.50;;;;;;5083369;27;20036;-65
2021/07/11 08:56:33;;;;;;;0.80;0.80;;;21.10;68.70;;;;;;5082821;28;20039;-65
2021/07/11 08:58:59;;;;;;;1.00;1.00;;;21.20;68.20;;;;;;5079768;28;20033;-65
2021/07/11 09:01:26;;;;;;;1.10;1.00;;;21.30;68.30;;;;;;5077891;27;20510;-65
2021/07/11 09:04:05;;;;;;;1.10;1.00;;;21.30;68.00;;;;;;5081746;28;20120;-65
2021/07/11 09:06:53;;;;;;;1.30;1.20;;;21.40;68.50;;;;;;5082426;27;20028;-65
2021/07/11 09:09:28;;;;;;;1.23;1.10;;;21.50;67.40;;;;;;5080363;27;20035;-66
2021/07/11 09:12:01;;;;;;;1.27;1.00;;;21.60;68.00;;;;;;5099038;27;20039;-65
2021/07/11 09:14:30;;;;;;;1.20;1.10;;;21.70;67.20;;;;;;5078672;28;20060;-66
2021/07/11 09:16:58;;;;;;;1.15;1.00;;;21.80;67.30;;;;;;5075863;27;20125;-65
2021/07/11 09:19:29;;;;;;;0.90;0.70;;;21.80;67.40;;;;;;5083277;28;20063;-65
2021/07/11 09:22:06;;;;;;;0.80;0.80;;;21.90;65.90;;;;;;5080976;28;20024;-66
2021/07/11 09:24:35;;;;;;;1.17;0.82;;;22.00;65.90;;;;;;5081348;27;20036;-66
2021/07/11 09:27:10;;;;;;;1.08;0.98;;;22.10;66.60;;;;;;5083578;28;20024;-66
2021/07/11 09:29:37;;;;;;;1.08;0.70;;;22.20;65.50;;;;;;5076221;28;20097;-66
2021/07/11 09:32:03;;;;;;;1.23;0.98;;;22.20;66.00;;;;;;5083126;28;20127;-65
2021/07/11 09:34:30;;;;;;;0.95;0.95;;;22.30;65.30;;;;;;5080361;27;20043;-66
2021/07/11 09:37:07;;;;;;;0.90;0.90;;;22.30;65.10;;;;;;5082597;28;20067;-66
2021/07/11 09:39:34;;;;;;;2.10;0.80;;;22.40;63.80;;;;;;5081501;28;20024;-66
2021/07/11 09:42:03;;;;;;;0.70;0.70;;;22.40;64.30;;;;;;5078617;27;20160;-65
2021/07/11 09:44:43;;;;;;;1.70;1.08;;;22.40;64.00;;;;;;5080173;27;20032;-65
2021/07/11 09:47:16;;;;;;;1.00;0.90;;;22.40;62.60;;;;;;5081715;28;20047;-66
2021/07/11 09:49:42;;;;;;;1.10;1.00;;;22.40;62.00;;;;;;5078854;27;20031;-66
2021/07/11 09:52:07;;;;;;;0.70;0.70;;;22.40;63.30;;;;;;5081625;28;20032;-66
2021/07/11 09:54:33;;;;;;;1.33;1.10;;;22.40;63.10;;;;;;5082237;27;20406;-66
2021/07/11 09:57:08;;;;;;;1.05;1.02;;;22.40;63.30;;;;;;5084033;27;20035;-66
2021/07/11 09:59:34;;;;;;;1.20;1.10;;;22.40;61.50;;;;;;5093876;27;20072;-65
2021/07/11 10:02:00;;;;;;;1.20;0.90;;;22.50;62.40;;;;;;5083389;27;20101;-65
2021/07/11 10:04:26;;;;;;;0.80;0.80;;;22.50;61.30;;;;;;5083538;27;20127;-65
2021/07/11 10:06:52;;;;;;;2.15;0.80;;;22.50;60.70;;;;;;5085956;28;20032;-66
2021/07/11 10:09:17;;;;;;;1.33;1.00;;;22.60;60.20;;;;;;5086214;27;20036;-65
2021/07/11 10:11:43;;;;;;;2.35;1.02;;;22.50;59.60;;;;;;5084035;28;20032;-65
2021/07/11 10:14:09;;;;;;;1.13;1.00;;;22.50;60.00;;;;;;5085658;27;20028;-65
2021/07/11 10:16:36;;;;;;;1.30;1.20;;;22.60;61.70;;;;;;5085519;27;20423;-65
2021/07/11 10:19:03;;;;;;;2.17;1.25;;;22.50;61.70;;;;;;5084601;28;20043;-66
2021/07/11 10:21:32;;;;;;;1.58;1.00;;;22.50;62.40;;;;;;5083004;27;20032;-65
2021/07/11 10:23:58;;;;;;;1.10;1.00;;;22.40;62.90;;;;;;5084051;28;20021;-65
2021/07/11 10:26:35;;;;;;;1.48;1.20;;;22.40;63.00;;;;;;5082259;27;20535;-65
2021/07/11 10:29:13;;;;;;;1.40;1.00;;;22.30;63.30;;;;;;5086781;27;20036;-65
2021/07/11 10:31:47;;;;;;;1.23;1.17;;;22.20;63.90;;;;;;5085606;28;20600;-65
2021/07/11 10:34:24;;;;;;;1.25;1.13;;;22.10;63.30;;;;;;5082692;27;20063;-65
2021/07/11 10:36:49;;;;;;;1.38;1.00;;;22.00;64.10;;;;;;5086723;27;20025;-65
2021/07/11 10:39:16;;;;;;;1.20;1.10;;;21.90;64.50;;;;;;5085414;28;20564;-65
2021/07/11 10:42:00;;;;;;;1.00;1.00;;;21.80;65.00;;;;;;5084503;28;20039;-65
2021/07/11 10:44:27;;;;;;;0.95;0.90;;;21.70;64.50;;;;;;5084790;27;20511;-65
2021/07/11 10:46:54;;;;;;;1.25;1.15;;;21.60;65.10;;;;;;5085068;28;20028;-65
2021/07/11 10:49:21;;;;;;;1.83;1.00;;;21.60;66.00;;;;;;5079772;28;20029;-65
2021/07/11 10:51:58;;;;;;;0.80;0.80;;;21.60;65.70;;;;;;5084824;28;20032;-65
2021/07/11 10:54:34;;;;;;;0.95;0.85;;;21.60;64.30;;;;;;5075501;28;21254;-65
2021/07/11 10:57:02;;;;;;;1.10;1.00;;;21.60;65.20;;;;;;5082264;27;20444;-65
2021/07/11 10:59:30;;;;;;;0.98;0.85;;;21.60;65.10;;;;;;5102867;27;20032;-65
2021/07/11 11:01:58;;;;;;;0.70;0.70;;;21.60;63.80;;;;;;5084207;27;20040;-65
2021/07/11 11:04:24;;;;;;;0.80;0.80;;;21.60;64.70;;;;;;5084684;27;20506;-65
2021/07/11 11:06:50;;;;;;;1.13;0.80;;;21.60;64.10;;;;;;5079464;28;20046;-66
2021/07/11 11:09:37;;;;;;;0.60;0.60;;;21.70;63.50;;;;;;5083579;28;20028;-65
2021/07/11 11:12:23;;;;;;;0.95;0.85;;;21.70;61.40;;;;;;5078918;28;20052;-65
2021/07/11 11:14:56;;;;;;;0.70;0.70;;;21.70;61.70;;;;;;5082891;28;20664;-65
2021/07/11 11:17:25;;;;;;;0.80;0.80;;;21.70;61.50;;;;;;5085133;27;20037;-65
2021/07/11 11:19:52;;;;;;;0.60;0.60;;;21.70;61.80;;;;;;5084971;28;20408;-65
2021/07/11 11:22:17;;;;;;;1.55;0.77;;;21.70;62.20;;;;;;5085760;27;20063;-65
2021/07/11 11:24:43;;;;;;;1.13;1.00;;;21.70;63.30;;;;;;5076139;27;20470;-65
2021/07/11 11:27:08;;;;;;;1.10;1.02;;;21.70;64.30;;;;;;5089192;28;20061;-65
2021/07/11 11:29:34;;;;;;;1.00;1.00;;;21.70;64.50;;;;;;5088728;27;20082;-65
2021/07/11 11:32:11;;;;;;;1.85;1.10;;;21.60;65.00;;;;;;5083569;28;20063;-66
2021/07/11 11:34:37;;;;;;;0.95;0.95;;;21.60;65.00;;;;;;5086608;27;20439;-65
2021/07/11 11:37:04;;;;;;;1.42;1.00;;;21.60;65.50;;;;;;5088946;27;20109;-64
2021/07/11 11:39:34;;;;;;;1.35;1.17;;;21.40;66.40;;;;;;5086220;28;20032;-64
2021/07/11 11:42:04;;;;;;;4.63;1.17;;;21.40;67.80;;;;;;5089286;27;20054;-64
2021/07/11 11:44:30;;;;;;;1.70;1.17;;;21.20;68.30;;;;;;5087175;27;20043;-63
2021/07/11 11:46:58;;;;;;;2.40;1.13;;;21.00;67.80;;;;;;5088134;28;20036;-64
2021/07/11 11:49:26;;;;;;;2.75;1.08;;;20.80;68.70;;;;;;5088700;27;20042;-64
2021/07/11 11:52:03;;;;;;;1.85;1.10;;;20.60;69.70;;;;;;5089215;27;20048;-64
2021/07/11 11:54:37;;;;;;;1.40;1.05;;;20.40;70.40;;;;;;5086843;27;22085;-64
2021/07/11 11:57:08;;;;;;;1.20;1.10;;;20.20;71.10;;;;;;5088888;27;20059;-64
2021/07/11 11:59:34;;;;;;;1.55;1.00;;;20.00;71.10;;;;;;5085374;28;20042;-64
2021/07/11 12:02:09;;;;;;;0.93;0.80;;;19.90;71.60;;;;;;5087780;27;20473;-64
2021/07/11 12:04:34;;;;;;;1.10;1.00;;;19.70;72.20;;;;;;5088043;27;20028;-64
2021/07/11 12:07:02;;;;;;;1.20;0.85;;;19.60;72.70;;;;;;5089115;28;20085;-64
2021/07/11 12:09:30;;;;;;;0.98;0.75;;;19.50;72.60;;;;;;5089109;27;20036;-64
2021/07/11 12:12:08;;;;;;;0.80;0.80;;;19.50;73.30;;;;;;5100414;27;20584;-64
2021/07/11 12:14:36;;;;;;;0.77;0.73;;;19.50;74.20;;;;;;5087082;27;20504;-64
2021/07/11 12:17:23;;;;;;;0.93;0.88;;;19.60;74.20;;;;;;5087776;27;20032;-64
2021/07/11 12:19:53;;;;;;;1.00;0.98;;;19.60;74.70;;;;;;5079864;28;20039;-64
2021/07/11 12:22:24;;;;;;;0.70;0.70;;;19.60;74.70;;;;;;5088371;27;20028;-64
2021/07/11 12:25:19;;;;;;;0.90;0.73;;;19.70;74.60;;;;;;5087168;27;20123;-65
2021/07/11 12:27:49;;;;;;;0.95;0.85;;;19.80;75.40;;;;;;5081048;27;20028;-64
2021/07/11 12:30:20;;;;;;;0.70;0.70;;;19.80;74.70;;;;;;5088030;27;20069;-64
2021/07/11 12:32:51;;;;;;;1.13;1.00;;;20.00;75.80;;;;;;5086215;27;20428;-64
2021/07/11 12:35:19;;;;;;;0.90;0.90;;;20.10;75.20;;;;;;5086561;28;20040;-65
2021/07/11 12:37:59;;;;;;;0.85;0.85;;;20.20;74.60;;;;;;5088008;27;20511;-65
2021/07/11 12:40:30;;;;;;;1.00;1.00;;;20.30;75.40;;;;;;5087514;27;20040;-65
2021/07/11 12:43:09;;;;;;;0.98;0.88;;;20.40;73.80;;;;;;5087548;27;20047;-63
2021/07/11 12:45:36;;;;;;;0.80;0.80;;;20.50;73.30;;;;;;5087739;27;20410;-64
2021/07/11 12:48:03;;;;;;;0.70;0.70;;;20.60;73.50;;;;;;5086569;28;20040;-64
2021/07/11 12:50:40;;;;;;;0.93;0.93;;;20.70;71.70;;;;;;5087908;27;20036;-64
2021/07/11 12:53:06;;;;;;;0.70;0.70;;;20.70;72.50;;;;;;5087968;27;20566;-64